Time;durP1;ratioP1;P1;durP2;ratioP2;P2;SDS_P1;SDS_P2;PMS_P1;PMS_P2;Temp;Humidity;BMP_temperature;BMP_pressure;BME280_temperature;BME280_humidity;BME280_pressure;Samples;Min_cycle;Max_cycle;Signal;HPM_P1;HPM_P2
2023/01/01 00:02:16;;;;;;;6.50;2.10;;;;;;;;;;106681;1310;22060;-77
2023/01/01 00:04:43;;;;;;;6.70;2.00;;;;;;;;;;106900;1301;22754;-75
2023/01/01 00:07:09;;;;;;;8.50;2.50;;;;;;;;;;106479;1313;21719;-76
2023/01/01 00:12:21;;;;;;;8.30;2.50;;;;;;;;;;106621;1313;23142;-77
2023/01/01 00:14:48;;;;;;;9.60;2.70;;;;;;;;;;106793;1303;22094;-77
2023/01/01 00:17:14;;;;;;;10.10;3.20;;;;;;;;;;106926;1295;22066;-76
2023/01/01 00:19:41;;;;;;;7.60;2.70;;;;;;;;;;106597;1313;22776;-75
2023/01/01 00:22:08;;;;;;;8.60;3.20;;;;;;;;;;106685;1310;21966;-75
2023/01/01 00:24:34;;;;;;;9.50;3.00;;;;;;;;;;106662;1310;22089;-76
2023/01/01 00:27:01;;;;;;;10.50;4.00;;;;;;;;;;106488;1312;22089;-75
2023/01/01 00:29:28;;;;;;;12.60;4.20;;;;;;;;;;106849;1303;21923;-76
2023/01/01 00:31:54;;;;;;;12.70;4.60;;;;;;;;;;106607;1311;22054;-76
2023/01/01 00:34:21;;;;;;;9.70;2.90;;;;;;;;;;106495;1310;22069;-76
2023/01/01 00:36:47;;;;;;;10.60;3.30;;;;;;;;;;106632;1311;22125;-76
2023/01/01 00:39:14;;;;;;;8.00;2.70;;;;;;;;;;106632;1311;22090;-76
2023/01/01 00:41:41;;;;;;;7.10;2.70;;;;;;;;;;106665;1310;22104;-76
2023/01/01 00:44:08;;;;;;;7.90;2.40;;;;;;;;;;106581;1311;22329;-76
2023/01/01 00:46:34;;;;;;;7.60;2.60;;;;;;;;;;106298;1313;22149;-76
2023/01/01 00:49:01;;;;;;;6.70;2.40;;;;;;;;;;106552;1312;22057;-76
2023/01/01 00:51:29;;;;;;;7.10;2.60;;;;;;;;;;106554;1312;22221;-77
2023/01/01 00:53:55;;;;;;;6.90;2.40;;;;;;;;;;106553;1312;22056;-77
2023/01/01 00:56:22;;;;;;;6.00;2.10;;;;;;;;;;106575;1311;21708;-76
2023/01/01 00:58:48;;;;;;;7.10;2.20;;;;;;;;;;106627;1303;22093;-76
2023/01/01 01:01:15;;;;;;;5.50;1.80;;;;;;;;;;106633;1310;22059;-75
2023/01/01 01:03:42;;;;;;;6.60;2.30;;;;;;;;;;106903;1302;22527;-76
2023/01/01 01:06:11;;;;;;;6.90;2.10;;;;;;;;;;106525;1313;22830;-76
2023/01/01 01:08:39;;;;;;;7.10;2.30;;;;;;;;;;106504;1312;22794;-78
2023/01/01 01:11:07;;;;;;;8.10;2.50;;;;;;;;;;106368;1313;22059;-76
2023/01/01 01:13:35;;;;;;;6.80;2.00;;;;;;;;;;106570;1312;22070;-75
2023/01/01 01:16:06;;;;;;;6.30;2.00;;;;;;;;;;106556;1312;22079;-76
2023/01/01 01:18:33;;;;;;;5.50;1.80;;;;;;;;;;106577;1312;22683;-75
2023/01/01 01:21:00;;;;;;;6.50;2.10;;;;;;;;;;106633;1311;22750;-75
2023/01/01 01:23:27;;;;;;;5.60;1.80;;;;;;;;;;106589;1305;22513;-77
2023/01/01 01:25:54;;;;;;;7.20;2.20;;;;;;;;;;106533;1313;22083;-76
2023/01/01 01:28:21;;;;;;;6.60;1.90;;;;;;;;;;106526;1307;22051;-76
2023/01/01 01:30:48;;;;;;;7.80;2.20;;;;;;;;;;106540;1313;22057;-76
2023/01/01 01:33:15;;;;;;;6.60;2.10;;;;;;;;;;106538;1303;22704;-76
2023/01/01 01:35:48;;;;;;;7.60;2.00;;;;;;;;;;106610;1312;22067;-76
2023/01/01 01:38:15;;;;;;;6.80;1.80;;;;;;;;;;106568;1311;22057;-77
2023/01/01 01:40:43;;;;;;;6.20;2.10;;;;;;;;;;106569;1311;22087;-76
2023/01/01 01:43:19;;;;;;;6.10;1.90;;;;;;;;;;106590;1312;22039;-76
2023/01/01 01:45:46;;;;;;;7.20;2.20;;;;;;;;;;106605;1311;22781;-76
2023/01/01 01:48:13;;;;;;;6.40;1.90;;;;;;;;;;106522;1313;22063;-77
2023/01/01 01:50:41;;;;;;;5.60;1.60;;;;;;;;;;106593;1312;22042;-77
2023/01/01 01:53:07;;;;;;;7.00;1.90;;;;;;;;;;106523;1312;22041;-76
2023/01/01 01:55:36;;;;;;;5.60;1.80;;;;;;;;;;106529;1311;22112;-76
2023/01/01 01:58:03;;;;;;;6.40;1.60;;;;;;;;;;106562;1313;22780;-76
2023/01/01 02:00:30;;;;;;;4.90;1.70;;;;;;;;;;106585;1312;22534;-78
2023/01/01 02:03:01;;;;;;;6.40;1.80;;;;;;;;;;106566;1312;22070;-76
2023/01/01 02:05:31;;;;;;;6.20;1.90;;;;;;;;;;106610;1311;22050;-77
2023/01/01 02:08:01;;;;;;;6.00;1.90;;;;;;;;;;106587;1311;22111;-77
2023/01/01 02:10:30;;;;;;;6.30;1.80;;;;;;;;;;106524;1313;22682;-75
2023/01/01 02:12:58;;;;;;;7.60;2.20;;;;;;;;;;106535;1312;22085;-76
2023/01/01 02:15:26;;;;;;;5.60;1.90;;;;;;;;;;106590;1313;22856;-76
2023/01/01 02:18:10;;;;;;;7.70;2.20;;;;;;;;;;106576;1312;22055;-76
2023/01/01 02:20:41;;;;;;;6.50;2.00;;;;;;;;;;106542;1313;22067;-76
2023/01/01 02:23:26;;;;;;;6.30;2.20;;;;;;;;;;106694;1310;22023;-76
2023/01/01 02:25:59;;;;;;;6.60;2.10;;;;;;;;;;106709;1308;22076;-76
2023/01/01 02:28:45;;;;;;;7.20;2.60;;;;;;;;;;106619;1310;22066;-76
2023/01/01 02:31:14;;;;;;;7.20;2.40;;;;;;;;;;106953;1297;22278;-76
2023/01/01 02:33:42;;;;;;;8.20;2.40;;;;;;;;;;106693;1309;21947;-76
2023/01/01 02:36:11;;;;;;;7.30;2.50;;;;;;;;;;106615;1309;22019;-76
2023/01/01 02:38:41;;;;;;;7.10;2.50;;;;;;;;;;106674;1310;22067;-77
2023/01/01 02:41:10;;;;;;;8.00;2.70;;;;;;;;;;106666;1309;22049;-75
2023/01/01 02:43:38;;;;;;;6.50;2.50;;;;;;;;;;106656;1309;22046;-76
2023/01/01 02:46:09;;;;;;;7.50;2.90;;;;;;;;;;106818;1310;22070;-76
2023/01/01 02:48:41;;;;;;;7.50;3.00;;;;;;;;;;106609;1310;22081;-75
2023/01/01 02:51:27;;;;;;;8.20;2.90;;;;;;;;;;106702;1309;21993;-75
2023/01/01 02:54:08;;;;;;;9.40;3.70;;;;;;;;;;106682;1309;22727;-76
2023/01/01 02:56:48;;;;;;;8.80;3.40;;;;;;;;;;106640;1309;22731;-75
2023/01/01 03:02:26;;;;;;;7.50;2.90;;;;;;;;;;106975;1302;22029;-76
2023/01/01 03:05:03;;;;;;;7.50;2.80;;;;;;;;;;106595;1310;22764;-75
2023/01/01 03:07:49;;;;;;;8.50;3.10;;;;;;;;;;106591;1310;22381;-76
2023/01/01 03:10:44;;;;;;;7.90;3.10;;;;;;;;;;106573;1310;22673;-75
2023/01/01 03:13:28;;;;;;;8.10;2.60;;;;;;;;;;106614;1310;22866;-76
2023/01/01 03:16:02;;;;;;;8.80;3.30;;;;;;;;;;106611;1305;22053;-76
2023/01/01 03:18:42;;;;;;;7.10;2.90;;;;;;;;;;106566;1298;22412;-76
2023/01/01 03:21:13;;;;;;;7.40;2.60;;;;;;;;;;106706;1310;22871;-76
2023/01/01 03:23:45;;;;;;;8.70;2.90;;;;;;;;;;106637;1310;22082;-76
2023/01/01 03:26:15;;;;;;;9.40;3.40;;;;;;;;;;106647;1309;22795;-76
2023/01/01 03:28:54;;;;;;;7.90;3.20;;;;;;;;;;106615;1310;22099;-76
2023/01/01 03:31:24;;;;;;;9.30;5.60;;;;;;;;;;106892;1291;22358;-76
2023/01/01 03:34:00;;;;;;;8.70;3.00;;;;;;;;;;106624;1310;22076;-76
2023/01/01 03:36:37;;;;;;;7.40;3.00;;;;;;;;;;106551;1306;22067;-76
2023/01/01 03:39:18;;;;;;;8.70;2.80;;;;;;;;;;106606;1310;22092;-76
2023/01/01 03:42:05;;;;;;;7.10;2.80;;;;;;;;;;106642;1310;22763;-76
2023/01/01 03:44:35;;;;;;;8.40;3.10;;;;;;;;;;106637;1303;22702;-77
2023/01/01 03:47:05;;;;;;;8.80;3.10;;;;;;;;;;106632;1310;22056;-76
2023/01/01 03:49:34;;;;;;;8.90;3.10;;;;;;;;;;106621;1310;22022;-76
2023/01/01 03:52:29;;;;;;;8.40;3.10;;;;;;;;;;106650;1310;22626;-76
2023/01/01 03:55:03;;;;;;;7.70;3.00;;;;;;;;;;106645;1310;22064;-76
2023/01/01 03:57:50;;;;;;;9.60;3.70;;;;;;;;;;106657;1311;22725;-76
2023/01/01 04:00:21;;;;;;;9.50;4.20;;;;;;;;;;106605;1310;22044;-76
2023/01/01 04:09:48;;;;;;;12.10;5.00;;;;;;;;;;100375;1333;545712;-82
2023/01/01 04:12:16;;;;;;;10.80;5.70;;;;;;;;;;102421;1319;24308;-82
2023/01/01 04:14:43;;;;;;;12.40;5.40;;;;;;;;;;102333;1318;23164;-78
2023/01/01 04:17:10;;;;;;;11.20;5.40;;;;;;;;;;102423;1319;22582;-77
2023/01/01 04:19:37;;;;;;;11.10;4.50;;;;;;;;;;102528;1318;25269;-76
2023/01/01 04:22:04;;;;;;;10.80;4.40;;;;;;;;;;102323;1319;24200;-78
2023/01/01 04:24:31;;;;;;;9.10;3.90;;;;;;;;;;101313;1316;1612415;-78
2023/01/01 04:26:57;;;;;;;11.10;3.70;;;;;;;;;;102448;1316;22731;-82
2023/01/01 04:29:24;;;;;;;8.50;3.50;;;;;;;;;;102523;1316;22479;-80
2023/01/01 04:31:51;;;;;;;9.20;3.70;;;;;;;;;;102899;1313;24324;-78
2023/01/01 04:34:17;;;;;;;10.50;4.20;;;;;;;;;;102870;1313;23861;-83
2023/01/01 04:36:44;;;;;;;11.00;4.20;;;;;;;;;;102894;1313;25430;-77
2023/01/01 04:39:11;;;;;;;10.90;4.30;;;;;;;;;;102870;1313;22473;-83
2023/01/01 04:41:37;;;;;;;10.30;4.00;;;;;;;;;;102829;1315;25348;-78
2023/01/01 04:44:04;;;;;;;9.40;3.80;;;;;;;;;;103401;1310;23843;-80
2023/01/01 04:46:31;;;;;;;8.70;3.50;;;;;;;;;;103397;1302;24324;-83
2023/01/01 04:48:57;;;;;;;8.60;3.40;;;;;;;;;;103219;1310;24313;-80
2023/01/01 04:51:24;;;;;;;9.50;3.40;;;;;;;;;;102929;1311;22477;-78
2023/01/01 04:53:50;;;;;;;9.00;3.30;;;;;;;;;;103233;1310;22617;-83
2023/01/01 04:56:18;;;;;;;8.40;3.30;;;;;;;;;;102930;1310;25322;-80
2023/01/01 04:58:46;;;;;;;8.90;3.00;;;;;;;;;;103121;1310;24228;-80
2023/01/01 05:01:18;;;;;;;7.60;2.90;;;;;;;;;;103377;1310;23883;-77
2023/01/01 05:03:45;;;;;;;8.10;2.80;;;;;;;;;;103220;1293;22465;-76
2023/01/01 05:06:12;;;;;;;10.10;3.20;;;;;;;;;;103015;1310;22487;-76
2023/01/01 05:08:40;;;;;;;7.90;2.90;;;;;;;;;;103212;1310;22613;-80
2023/01/01 05:11:14;;;;;;;9.20;3.60;;;;;;;;;;103086;1310;23891;-80
2023/01/01 05:13:42;;;;;;;9.20;3.10;;;;;;;;;;102938;1310;22472;-75
2023/01/01 05:16:10;;;;;;;9.20;3.10;;;;;;;;;;103089;1310;25334;-80
2023/01/01 05:18:38;;;;;;;9.10;3.10;;;;;;;;;;102940;1310;25319;-81
2023/01/01 05:21:06;;;;;;;9.50;2.90;;;;;;;;;;103088;1310;22467;-78
2023/01/01 05:23:33;;;;;;;8.90;3.30;;;;;;;;;;103001;1297;22468;-80
2023/01/01 05:25:59;;;;;;;8.50;3.30;;;;;;;;;;103056;1310;21729;-81
2023/01/01 05:28:26;;;;;;;9.20;3.60;;;;;;;;;;102976;1305;23078;-82
2023/01/01 05:30:53;;;;;;;11.10;3.90;;;;;;;;;;102956;1310;25281;-76
2023/01/01 05:33:19;;;;;;;10.00;3.60;;;;;;;;;;103066;1310;22532;-80
2023/01/01 05:35:52;;;;;;;9.70;3.70;;;;;;;;;;102985;1310;22481;-77
2023/01/01 05:38:19;;;;;;;9.70;3.70;;;;;;;;;;103211;1309;22529;-79
2023/01/01 05:40:45;;;;;;;9.60;3.50;;;;;;;;;;102923;1298;25400;-79
2023/01/01 05:43:12;;;;;;;9.70;3.70;;;;;;;;;;103194;1310;22457;-82
2023/01/01 05:45:38;;;;;;;8.80;3.20;;;;;;;;;;102971;1310;25540;-82
2023/01/01 05:48:06;;;;;;;11.70;3.60;;;;;;;;;;103225;1309;25422;-78
2023/01/01 05:50:32;;;;;;;9.40;3.50;;;;;;;;;;103159;1310;24365;-81
2023/01/01 05:52:59;;;;;;;9.40;3.10;;;;;;;;;;102928;1310;25429;-79
2023/01/01 05:55:25;;;;;;;11.10;3.70;;;;;;;;;;103078;1310;22479;-80
2023/01/01 05:57:52;;;;;;;10.00;3.40;;;;;;;;;;102950;1313;22471;-76
2023/01/01 06:00:19;;;;;;;8.40;3.00;;;;;;;;;;103225;1310;22535;-83
2023/01/01 06:02:45;;;;;;;10.90;3.70;;;;;;;;;;103168;1297;22483;-80
2023/01/01 06:05:12;;;;;;;9.70;3.50;;;;;;;;;;103119;1310;24324;-77
2023/01/01 06:07:39;;;;;;;9.90;3.70;;;;;;;;;;103183;1310;22588;-82
2023/01/01 06:10:05;;;;;;;12.60;3.80;;;;;;;;;;103028;1310;24458;-83
2023/01/01 06:12:32;;;;;;;12.00;3.60;;;;;;;;;;103111;1310;22494;-76
2023/01/01 06:14:59;;;;;;;10.40;3.70;;;;;;;;;;103062;1310;22712;-81
2023/01/01 06:17:25;;;;;;;11.20;3.60;;;;;;;;;;103191;1310;24420;-81
2023/01/01 06:19:52;;;;;;;9.90;3.10;;;;;;;;;;103016;1288;25327;-76
2023/01/01 06:22:18;;;;;;;8.00;3.20;;;;;;;;;;102948;1311;25194;-80
2023/01/01 06:24:45;;;;;;;9.60;3.00;;;;;;;;;;103211;1310;22465;-78
2023/01/01 06:27:12;;;;;;;9.50;3.40;;;;;;;;;;103270;1302;24324;-79
2023/01/01 06:29:38;;;;;;;8.40;3.30;;;;;;;;;;103180;1310;25397;-80
2023/01/01 06:32:05;;;;;;;9.30;3.30;;;;;;;;;;103139;1310;22466;-80
2023/01/01 06:34:31;;;;;;;8.70;3.10;;;;;;;;;;102938;1310;22554;-83
2023/01/01 06:37:00;;;;;;;10.10;3.40;;;;;;;;;;103048;1310;22462;-82
2023/01/01 06:39:27;;;;;;;8.00;2.80;;;;;;;;;;103038;1310;22439;-79
2023/01/01 06:41:53;;;;;;;9.70;3.20;;;;;;;;;;103158;1307;22467;-77
2023/01/01 06:44:20;;;;;;;10.00;3.40;;;;;;;;;;103245;1310;22590;-79
2023/01/01 06:46:46;;;;;;;8.30;2.90;;;;;;;;;;103358;1310;24327;-81
2023/01/01 06:49:13;;;;;;;9.00;2.90;;;;;;;;;;103243;1310;25395;-77
2023/01/01 06:51:41;;;;;;;10.70;3.20;;;;;;;;;;103208;1310;24239;-76
2023/01/01 06:54:08;;;;;;;8.80;3.00;;;;;;;;;;103411;1306;24269;-77
2023/01/01 06:56:35;;;;;;;9.40;3.50;;;;;;;;;;103474;1306;24337;-80
2023/01/01 06:59:03;;;;;;;8.70;3.30;;;;;;;;;;103456;1306;22481;-77
2023/01/01 07:01:30;;;;;;;8.20;3.30;;;;;;;;;;103460;1285;25302;-76
2023/01/01 07:03:58;;;;;;;9.70;3.60;;;;;;;;;;103740;1298;22417;-80
2023/01/01 07:06:26;;;;;;;11.30;4.20;;;;;;;;;;103493;1303;22478;-80
2023/01/01 07:08:52;;;;;;;9.60;3.40;;;;;;;;;;103518;1297;24335;-78
2023/01/01 07:11:20;;;;;;;10.50;4.10;;;;;;;;;;103517;1304;22845;-81
2023/01/01 07:13:46;;;;;;;9.10;3.70;;;;;;;;;;103448;1306;25323;-80
2023/01/01 07:16:13;;;;;;;10.50;3.20;;;;;;;;;;103444;1306;22473;-83
2023/01/01 07:18:40;;;;;;;9.90;3.10;;;;;;;;;;103458;1298;22527;-74
2023/01/01 07:21:21;;;;;;;9.50;3.50;;;;;;;;;;103489;1292;22467;-81
2023/01/01 07:23:48;;;;;;;7.80;2.90;;;;;;;;;;103493;1306;25360;-80
2023/01/01 07:26:15;;;;;;;9.40;3.10;;;;;;;;;;103473;1307;22461;-78
2023/01/01 07:28:41;;;;;;;11.20;3.30;;;;;;;;;;103508;1304;21709;-77
2023/01/01 07:31:09;;;;;;;9.10;3.50;;;;;;;;;;103670;1304;25313;-80
2023/01/01 07:33:35;;;;;;;11.10;3.70;;;;;;;;;;103443;1306;22465;-80
2023/01/01 07:36:02;;;;;;;9.20;3.70;;;;;;;;;;103368;1308;24285;-77
2023/01/01 07:38:29;;;;;;;9.60;4.00;;;;;;;;;;103430;1299;22584;-81
2023/01/01 07:40:56;;;;;;;9.20;3.50;;;;;;;;;;103461;1292;22462;-80
2023/01/01 07:43:22;;;;;;;7.70;3.00;;;;;;;;;;103463;1307;22463;-79
2023/01/01 07:45:49;;;;;;;9.50;3.70;;;;;;;;;;103477;1304;22461;-82
2023/01/01 07:48:16;;;;;;;11.40;4.10;;;;;;;;;;103486;1291;22464;-79
2023/01/01 07:50:42;;;;;;;11.30;4.40;;;;;;;;;;103468;1304;22474;-76
2023/01/01 07:53:09;;;;;;;14.20;4.40;;;;;;;;;;103251;1291;25458;-79
2023/01/01 07:55:36;;;;;;;10.10;4.00;;;;;;;;;;103435;1305;22462;-80
2023/01/01 07:58:03;;;;;;;10.00;4.00;;;;;;;;;;103234;1299;22704;-76
2023/01/01 08:00:29;;;;;;;9.40;4.00;;;;;;;;;;103413;1306;24217;-83
2023/01/01 08:02:57;;;;;;;10.90;4.20;;;;;;;;;;103369;1307;22515;-77
2023/01/01 08:05:24;;;;;;;9.60;3.80;;;;;;;;;;103563;1304;22474;-82
2023/01/01 08:07:51;;;;;;;11.70;3.70;;;;;;;;;;103490;1305;22458;-82
2023/01/01 08:10:19;;;;;;;11.40;3.50;;;;;;;;;;103483;1306;22463;-78
2023/01/01 08:12:46;;;;;;;9.40;3.40;;;;;;;;;;103508;1306;22587;-76
2023/01/01 08:15:14;;;;;;;10.60;3.80;;;;;;;;;;103487;1305;22530;-76
2023/01/01 08:17:41;;;;;;;9.40;3.70;;;;;;;;;;103453;1298;22466;-81
2023/01/01 08:20:08;;;;;;;10.10;4.00;;;;;;;;;;103434;1298;22463;-81
2023/01/01 08:22:34;;;;;;;14.00;4.60;;;;;;;;;;103485;1306;24340;-75
2023/01/01 08:25:01;;;;;;;10.70;4.10;;;;;;;;;;103594;1304;22892;-82
2023/01/01 08:27:28;;;;;;;9.60;3.80;;;;;;;;;;103655;1297;22487;-75
2023/01/01 08:29:54;;;;;;;12.50;5.10;;;;;;;;;;103383;1305;25291;-76
2023/01/01 08:32:21;;;;;;;13.20;4.50;;;;;;;;;;103350;1306;24245;-82
2023/01/01 08:34:47;;;;;;;12.00;4.60;;;;;;;;;;103369;1305;25253;-76
2023/01/01 08:37:14;;;;;;;12.40;4.80;;;;;;;;;;103438;1306;24238;-79
2023/01/01 08:39:41;;;;;;;12.50;4.30;;;;;;;;;;103457;1282;23845;-77
2023/01/01 08:42:07;;;;;;;10.30;3.60;;;;;;;;;;103444;1306;22433;-78
2023/01/01 08:44:34;;;;;;;10.00;3.60;;;;;;;;;;103425;1306;22511;-78
2023/01/01 08:47:01;;;;;;;10.90;4.00;;;;;;;;;;103372;1305;24269;-81
2023/01/01 08:49:28;;;;;;;12.40;4.20;;;;;;;;;;103710;1306;24402;-80
2023/01/01 08:51:55;;;;;;;9.40;3.60;;;;;;;;;;103692;1274;25475;-76
2023/01/01 08:54:21;;;;;;;8.60;3.20;;;;;;;;;;103449;1307;25366;-80
2023/01/01 08:56:48;;;;;;;8.50;3.30;;;;;;;;;;103494;1306;24265;-77
2023/01/01 08:59:15;;;;;;;8.00;3.20;;;;;;;;;;103421;1306;25212;-77
2023/01/01 09:01:42;;;;;;;7.90;3.20;;;;;;;;;;103455;1305;22535;-84
2023/01/01 09:04:11;;;;;;;7.60;3.40;;;;;;;;;;103475;1306;22936;-76
2023/01/01 09:06:38;;;;;;;8.40;3.30;;;;;;;;;;103712;1301;26429;-80
2023/01/01 09:09:04;;;;;;;8.00;3.10;;;;;;;;;;103479;1307;22599;-79
2023/01/01 09:11:31;;;;;;;9.50;3.10;;;;;;;;;;103431;1282;22633;-83
2023/01/01 09:13:58;;;;;;;7.10;2.90;;;;;;;;;;103407;1305;22467;-81
2023/01/01 09:16:24;;;;;;;9.70;2.90;;;;;;;;;;103399;1306;22615;-76
2023/01/01 09:18:51;;;;;;;6.80;2.70;;;;;;;;;;103471;1306;22656;-84
2023/01/01 09:21:18;;;;;;;8.50;3.20;;;;;;;;;;103402;1306;23068;-78
2023/01/01 09:23:44;;;;;;;9.40;3.40;;;;;;;;;;103264;1306;25290;-81
2023/01/01 09:26:11;;;;;;;10.80;4.30;;;;;;;;;;103255;1306;22465;-82
2023/01/01 09:28:38;;;;;;;8.90;3.50;;;;;;;;;;103420;1306;22462;-83
2023/01/01 09:31:05;;;;;;;9.10;3.30;;;;;;;;;;103456;1301;24789;-77
2023/01/01 09:33:32;;;;;;;8.90;3.30;;;;;;;;;;103370;1306;22477;-83
2023/01/01 09:36:11;;;;;;;12.10;3.80;;;;;;;;;;103440;1305;24314;-82
2023/01/01 09:38:38;;;;;;;9.40;3.80;;;;;;;;;;103338;1298;22838;-79
2023/01/01 09:41:08;;;;;;;11.00;4.90;;;;;;;;;;103232;1301;22511;-82
2023/01/01 09:43:44;;;;;;;10.80;4.70;;;;;;;;;;103507;1306;25204;-77
2023/01/01 09:46:11;;;;;;;10.80;4.00;;;;;;;;;;103443;1306;25266;-81
2023/01/01 09:48:40;;;;;;;8.60;3.70;;;;;;;;;;103826;1283;22711;-80
2023/01/01 09:51:12;;;;;;;9.50;4.00;;;;;;;;;;103742;1275;25287;-80
2023/01/01 09:53:39;;;;;;;11.00;3.70;;;;;;;;;;103419;1307;22479;-81
2023/01/01 09:56:10;;;;;;;9.20;3.70;;;;;;;;;;103459;1305;24281;-83
2023/01/01 09:58:36;;;;;;;9.70;3.90;;;;;;;;;;107230;1296;22040;-75
2023/01/01 10:01:15;;;;;;;11.20;5.10;;;;;;;;;;107210;1289;22112;-76
2023/01/01 10:04:06;;;;;;;9.30;3.90;;;;;;;;;;106913;1298;22049;-75
2023/01/01 10:06:36;;;;;;;9.80;4.00;;;;;;;;;;106991;1304;22054;-75
2023/01/01 10:09:20;;;;;;;10.40;4.10;;;;;;;;;;106922;1298;22061;-76
2023/01/01 10:12:06;;;;;;;8.80;3.80;;;;;;;;;;106939;1299;22093;-76
2023/01/01 10:14:41;;;;;;;8.90;3.60;;;;;;;;;;107045;1297;22060;-76
2023/01/01 10:17:30;;;;;;;9.50;3.60;;;;;;;;;;106959;1304;21976;-76
2023/01/01 10:19:59;;;;;;;10.60;3.80;;;;;;;;;;107190;1290;22747;-74
2023/01/01 10:22:30;;;;;;;9.20;3.90;;;;;;;;;;106916;1306;22281;-76
2023/01/01 10:25:07;;;;;;;11.60;5.00;;;;;;;;;;106895;1306;22132;-75
2023/01/01 10:27:38;;;;;;;11.80;4.90;;;;;;;;;;106930;1306;22287;-75
2023/01/01 10:30:13;;;;;;;16.30;6.50;;;;;;;;;;106912;1304;22802;-76
2023/01/01 10:32:42;;;;;;;13.50;6.10;;;;;;;;;;107179;1298;22804;-77
2023/01/01 10:35:13;;;;;;;10.40;4.90;;;;;;;;;;107029;1299;22093;-76
2023/01/01 10:37:40;;;;;;;9.80;4.30;;;;;;;;;;106906;1298;22082;-79
2023/01/01 10:40:18;;;;;;;14.80;7.30;;;;;;;;;;106912;1306;22025;-78
2023/01/01 10:42:47;;;;;;;12.90;6.60;;;;;;;;;;106794;1306;21962;-77
2023/01/01 10:45:15;;;;;;;13.00;5.50;;;;;;;;;;107119;1291;22072;-76
2023/01/01 10:48:01;;;;;;;12.20;4.90;;;;;;;;;;106921;1293;22074;-77
2023/01/01 10:50:40;;;;;;;11.00;4.50;;;;;;;;;;106942;1307;22202;-76
2023/01/01 10:53:17;;;;;;;9.80;3.90;;;;;;;;;;106928;1307;22082;-77
2023/01/01 10:55:47;;;;;;;9.00;3.70;;;;;;;;;;107025;1300;22161;-77
2023/01/01 10:58:26;;;;;;;10.30;4.70;;;;;;;;;;106921;1306;22052;-78
2023/01/01 11:00:57;;;;;;;9.00;3.80;;;;;;;;;;106948;1300;22039;-79
2023/01/01 11:03:27;;;;;;;11.30;4.70;;;;;;;;;;106874;1306;22724;-77
2023/01/01 11:06:01;;;;;;;9.80;4.10;;;;;;;;;;106659;1309;22055;-78
2023/01/01 11:08:30;;;;;;;11.20;4.10;;;;;;;;;;106818;1307;22096;-78
2023/01/01 11:10:58;;;;;;;9.20;3.90;;;;;;;;;;106850;1306;22124;-77
2023/01/01 11:13:25;;;;;;;8.40;3.80;;;;;;;;;;106873;1302;21713;-78
2023/01/01 11:15:52;;;;;;;8.20;3.60;;;;;;;;;;106764;1307;22091;-77
2023/01/01 11:18:25;;;;;;;10.90;4.20;;;;;;;;;;106708;1309;22075;-77
2023/01/01 11:20:53;;;;;;;9.00;4.00;;;;;;;;;;106784;1308;22087;-78
2023/01/01 11:23:28;;;;;;;8.90;3.60;;;;;;;;;;106692;1309;22072;-77
2023/01/01 11:25:59;;;;;;;9.90;3.70;;;;;;;;;;106777;1308;22066;-75
2023/01/01 11:28:25;;;;;;;11.00;3.60;;;;;;;;;;106807;1306;22023;-75
2023/01/01 11:31:08;;;;;;;9.00;4.00;;;;;;;;;;106900;1306;21996;-75
2023/01/01 11:33:42;;;;;;;8.40;3.40;;;;;;;;;;106759;1298;21944;-76
2023/01/01 11:36:10;;;;;;;9.10;3.50;;;;;;;;;;106889;1301;22097;-76
2023/01/01 11:38:36;;;;;;;8.90;3.10;;;;;;;;;;106797;1308;21728;-76
2023/01/01 11:41:04;;;;;;;10.20;3.60;;;;;;;;;;106782;1309;22070;-75
2023/01/01 11:43:43;;;;;;;11.30;4.20;;;;;;;;;;106704;1309;22106;-75
2023/01/01 11:46:13;;;;;;;11.30;3.80;;;;;;;;;;106784;1300;21995;-75
2023/01/01 11:48:41;;;;;;;9.30;3.30;;;;;;;;;;106777;1306;22168;-75
2023/01/01 11:51:10;;;;;;;12.80;3.80;;;;;;;;;;106932;1306;22793;-76
2023/01/01 11:53:38;;;;;;;10.70;3.80;;;;;;;;;;106886;1307;22070;-75
2023/01/01 11:56:11;;;;;;;11.90;4.40;;;;;;;;;;106881;1308;22059;-75
2023/01/01 11:58:52;;;;;;;17.00;6.10;;;;;;;;;;106872;1306;22133;-77
2023/01/01 12:01:25;;;;;;;18.90;7.00;;;;;;;;;;106761;1309;21931;-75
2023/01/01 12:03:52;;;;;;;20.80;6.90;;;;;;;;;;106919;1288;22089;-75
2023/01/01 12:06:35;;;;;;;15.90;5.30;;;;;;;;;;106624;1310;22046;-75
2023/01/01 12:09:05;;;;;;;19.30;6.90;;;;;;;;;;107035;1301;22064;-75
2023/01/01 12:11:40;;;;;;;19.70;5.70;;;;;;;;;;106999;1302;22940;-75
2023/01/01 12:14:18;;;;;;;14.60;5.70;;;;;;;;;;106753;1307;22086;-75
2023/01/01 12:16:55;;;;;;;15.60;6.20;;;;;;;;;;106864;1309;22123;-76
2023/01/01 12:19:24;;;;;;;17.00;6.30;;;;;;;;;;106939;1288;22034;-76
2023/01/01 12:21:54;;;;;;;14.90;6.50;;;;;;;;;;106752;1309;21930;-75
2023/01/01 12:24:20;;;;;;;15.70;7.50;;;;;;;;;;106940;1295;22864;-75
2023/01/01 12:26:50;;;;;;;16.80;6.90;;;;;;;;;;107011;1302;22077;-75
2023/01/01 12:29:19;;;;;;;16.60;7.00;;;;;;;;;;106791;1300;21666;-75
2023/01/01 12:31:58;;;;;;;18.10;6.70;;;;;;;;;;106855;1308;22106;-75
2023/01/01 12:34:44;;;;;;;14.30;5.90;;;;;;;;;;106850;1301;22060;-75
2023/01/01 12:37:30;;;;;;;15.60;5.10;;;;;;;;;;106878;1309;22094;-75
2023/01/01 12:39:59;;;;;;;15.50;6.60;;;;;;;;;;106774;1309;22108;-75
2023/01/01 12:42:44;;;;;;;16.10;6.40;;;;;;;;;;106773;1306;22059;-75
2023/01/01 12:45:11;;;;;;;15.90;6.50;;;;;;;;;;106779;1308;22061;-75
2023/01/01 12:47:37;;;;;;;23.50;8.40;;;;;;;;;;106764;1309;22049;-75
2023/01/01 12:50:04;;;;;;;19.60;8.80;;;;;;;;;;106783;1309;22064;-75
2023/01/01 12:52:54;;;;;;;18.80;7.80;;;;;;;;;;107136;1291;22060;-75
2023/01/01 12:55:20;;;;;;;14.50;5.60;;;;;;;;;;106860;1308;22044;-75
2023/01/01 12:57:59;;;;;;;13.80;5.20;;;;;;;;;;106872;1309;22878;-75
2023/01/01 13:00:27;;;;;;;14.50;5.90;;;;;;;;;;106703;1309;22084;-75
2023/01/01 13:02:59;;;;;;;14.30;5.60;;;;;;;;;;106637;1311;22087;-76
2023/01/01 13:05:32;;;;;;;14.90;5.10;;;;;;;;;;106591;1309;22738;-75
2023/01/01 13:08:02;;;;;;;15.40;3.70;;;;;;;;;;106919;1300;22177;-75
2023/01/01 13:10:33;;;;;;;13.20;4.40;;;;;;;;;;106627;1310;22018;-75
2023/01/01 13:13:00;;;;;;;16.60;4.00;;;;;;;;;;106623;1309;22631;-75
2023/01/01 13:15:45;;;;;;;12.00;3.90;;;;;;;;;;106631;1310;22103;-75
2023/01/01 13:18:14;;;;;;;14.90;5.10;;;;;;;;;;106617;1310;22083;-75
2023/01/01 13:20:45;;;;;;;17.50;6.20;;;;;;;;;;106657;1311;22799;-75
2023/01/01 13:23:30;;;;;;;15.50;5.20;;;;;;;;;;106651;1311;22078;-75
2023/01/01 13:26:15;;;;;;;15.70;5.50;;;;;;;;;;106623;1304;22065;-75
2023/01/01 13:28:51;;;;;;;14.50;4.80;;;;;;;;;;106664;1311;22103;-75
2023/01/01 13:31:17;;;;;;;15.20;5.30;;;;;;;;;;106579;1308;22042;-75
2023/01/01 13:34:04;;;;;;;10.70;4.30;;;;;;;;;;106970;1287;22687;-74
2023/01/01 13:36:31;;;;;;;18.90;9.40;;;;;;;;;;106677;1312;21971;-75
2023/01/01 13:38:59;;;;;;;15.80;6.30;;;;;;;;;;106672;1310;22102;-76
2023/01/01 13:41:29;;;;;;;14.60;6.20;;;;;;;;;;106800;1302;22090;-75
2023/01/01 13:43:58;;;;;;;15.40;5.60;;;;;;;;;;106637;1311;22763;-75
2023/01/01 13:46:40;;;;;;;13.80;5.10;;;;;;;;;;106599;1312;22032;-75
2023/01/01 13:49:25;;;;;;;16.00;5.50;;;;;;;;;;106933;1296;22093;-74
2023/01/01 13:51:51;;;;;;;17.50;5.90;;;;;;;;;;106938;1301;22051;-74
2023/01/01 13:54:21;;;;;;;17.20;6.60;;;;;;;;;;106964;1301;22076;-75
2023/01/01 13:56:51;;;;;;;18.40;8.30;;;;;;;;;;106640;1311;22042;-75
2023/01/01 13:59:27;;;;;;;21.50;11.90;;;;;;;;;;106956;1293;22669;-75
2023/01/01 14:02:15;;;;;;;18.20;8.00;;;;;;;;;;106588;1311;22870;-76
2023/01/01 14:04:44;;;;;;;14.60;7.40;;;;;;;;;;106625;1311;22063;-76
2023/01/01 14:07:16;;;;;;;17.40;8.40;;;;;;;;;;106593;1312;22119;-76
2023/01/01 14:09:43;;;;;;;14.90;6.80;;;;;;;;;;106590;1311;22758;-76
2023/01/01 14:12:15;;;;;;;13.00;7.00;;;;;;;;;;106929;1297;22075;-76
2023/01/01 14:14:41;;;;;;;14.40;6.00;;;;;;;;;;106574;1312;22114;-76
2023/01/01 14:17:08;;;;;;;14.80;6.10;;;;;;;;;;106588;1312;22052;-76
2023/01/01 14:19:38;;;;;;;17.50;5.80;;;;;;;;;;106638;1296;22103;-76
2023/01/01 14:22:09;;;;;;;13.20;5.50;;;;;;;;;;106573;1306;22086;-77
2023/01/01 14:24:41;;;;;;;13.40;5.80;;;;;;;;;;106497;1312;22667;-76
2023/01/01 14:27:12;;;;;;;15.90;5.60;;;;;;;;;;106628;1311;22076;-77
2023/01/01 14:29:39;;;;;;;12.70;5.30;;;;;;;;;;106612;1312;21959;-75
2023/01/01 14:32:20;;;;;;;14.20;5.60;;;;;;;;;;106660;1309;22086;-75
2023/01/01 14:34:56;;;;;;;13.60;5.20;;;;;;;;;;106600;1311;21985;-76
2023/01/01 14:37:23;;;;;;;13.90;5.30;;;;;;;;;;106585;1312;22805;-75
2023/01/01 14:40:27;;;;;;;12.10;5.60;;;;;;;;;;106910;1294;22738;-76
2023/01/01 14:42:56;;;;;;;13.30;5.40;;;;;;;;;;106146;1315;22128;-76
2023/01/01 14:45:23;;;;;;;15.30;5.00;;;;;;;;;;106508;1306;22923;-76
2023/01/01 14:47:51;;;;;;;14.80;6.30;;;;;;;;;;106110;1316;22078;-76
2023/01/01 14:50:22;;;;;;;13.80;6.00;;;;;;;;;;106004;1316;22106;-76
2023/01/01 14:52:53;;;;;;;17.70;5.80;;;;;;;;;;106147;1315;22168;-76
2023/01/01 14:55:20;;;;;;;14.80;5.60;;;;;;;;;;106233;1315;21977;-76